sensor_id;sensor_type;location;lat;lon;timestamp;temperature;humidity
38398;DHT22;24179;52.094;4.408;2022-12-18T00:01:23;-3.00;99.90
38398;DHT22;24179;52.094;4.408;2022-12-18T00:04:24;-3.00;99.90
38398;DHT22;24179;52.094;4.408;2022-12-18T00:07:25;-3.00;99.90
38398;DHT22;24179;52.094;4.408;2022-12-18T00:10:25;-2.90;99.90
38398;DHT22;24179;52.094;4.408;2022-12-18T00:13:27;-2.90;99.90
38398;DHT22;24179;52.094;4.408;2022-12-18T00:16:27;-2.90;99.90
38398;DHT22;24179;52.094;4.408;2022-12-18T00:19:28;-2.80;99.90
38398;DHT22;24179;52.094;4.408;2022-12-18T00:22:29;-2.80;99.90
38398;DHT22;24179;52.094;4.408;2022-12-18T00:25:29;-2.80;99.90
38398;DHT22;24179;52.094;4.408;2022-12-18T00:28:32;-2.90;99.90
38398;DHT22;24179;52.094;4.408;2022-12-18T00:31:33;-2.90;99.90
38398;DHT22;24179;52.094;4.408;2022-12-18T00:34:34;-2.80;99.90
38398;DHT22;24179;52.094;4.408;2022-12-18T00:37:34;-2.90;99.90
38398;DHT22;24179;52.094;4.408;2022-12-18T00:40:35;-2.90;99.90
38398;DHT22;24179;52.094;4.408;2022-12-18T00:43:38;-2.90;99.90
38398;DHT22;24179;52.094;4.408;2022-12-18T00:46:39;-2.90;99.90
38398;DHT22;24179;52.094;4.408;2022-12-18T00:49:39;-2.90;99.90
38398;DHT22;24179;52.094;4.408;2022-12-18T00:52:40;-2.90;99.90
38398;DHT22;24179;52.094;4.408;2022-12-18T00:55:41;-2.80;99.90
38398;DHT22;24179;52.094;4.408;2022-12-18T00:58:41;-2.90;99.90
38398;DHT22;24179;52.094;4.408;2022-12-18T01:01:42;-2.90;99.90
38398;DHT22;24179;52.094;4.408;2022-12-18T01:04:42;-2.90;99.90
38398;DHT22;24179;52.094;4.408;2022-12-18T01:07:43;-2.90;99.90
38398;DHT22;24179;52.094;4.408;2022-12-18T01:10:43;-2.80;99.90
38398;DHT22;24179;52.094;4.408;2022-12-18T01:13:44;-2.80;99.90
38398;DHT22;24179;52.094;4.408;2022-12-18T01:16:44;-2.90;99.90
38398;DHT22;24179;52.094;4.408;2022-12-18T01:19:45;-2.90;99.90
38398;DHT22;24179;52.094;4.408;2022-12-18T01:22:45;-2.90;99.90
38398;DHT22;24179;52.094;4.408;2022-12-18T01:25:48;-2.90;99.90
38398;DHT22;24179;52.094;4.408;2022-12-18T01:28:49;-2.90;99.90
38398;DHT22;24179;52.094;4.408;2022-12-18T01:31:49;-2.90;99.90
38398;DHT22;24179;52.094;4.408;2022-12-18T01:34:50;-3.00;99.90
38398;DHT22;24179;52.094;4.408;2022-12-18T01:37:53;-3.00;99.90
38398;DHT22;24179;52.094;4.408;2022-12-18T01:40:58;-3.00;99.90
38398;DHT22;24179;52.094;4.408;2022-12-18T01:43:58;-3.00;99.90
38398;DHT22;24179;52.094;4.408;2022-12-18T01:46:59;-3.00;99.90
38398;DHT22;24179;52.094;4.408;2022-12-18T01:50:03;-3.10;99.90
38398;DHT22;24179;52.094;4.408;2022-12-18T01:53:37;-3.10;99.90
38398;DHT22;24179;52.094;4.408;2022-12-18T01:56:31;-3.10;99.90
38398;DHT22;24179;52.094;4.408;2022-12-18T01:59:31;-3.10;99.90
38398;DHT22;24179;52.094;4.408;2022-12-18T02:02:32;-3.20;99.90
38398;DHT22;24179;52.094;4.408;2022-12-18T02:18:19;-3.10;99.90
38398;DHT22;24179;52.094;4.408;2022-12-18T02:21:40;-3.10;99.90
38398;DHT22;24179;52.094;4.408;2022-12-18T02:28:01;-3.10;99.90
38398;DHT22;24179;52.094;4.408;2022-12-18T02:31:04;-3.10;99.90
38398;DHT22;24179;52.094;4.408;2022-12-18T02:34:06;-3.10;99.90
38398;DHT22;24179;52.094;4.408;2022-12-18T02:37:09;-3.10;99.90
38398;DHT22;24179;52.094;4.408;2022-12-18T02:40:11;-3.20;99.90
38398;DHT22;24179;52.094;4.408;2022-12-18T02:43:14;-3.20;99.90
38398;DHT22;24179;52.094;4.408;2022-12-18T02:46:48;-3.20;99.90
38398;DHT22;24179;52.094;4.408;2022-12-18T02:49:49;-3.30;99.90
38398;DHT22;24179;52.094;4.408;2022-12-18T02:59:04;-3.20;99.90
38398;DHT22;24179;52.094;4.408;2022-12-18T03:08:08;-3.20;99.90
38398;DHT22;24179;52.094;4.408;2022-12-18T03:11:10;-3.30;99.90
38398;DHT22;24179;52.094;4.408;2022-12-18T03:14:11;-3.40;99.90
38398;DHT22;24179;52.094;4.408;2022-12-18T03:17:13;-3.40;99.90
38398;DHT22;24179;52.094;4.408;2022-12-18T03:20:17;-3.40;99.90
38398;DHT22;24179;52.094;4.408;2022-12-18T03:23:20;-3.40;99.90
38398;DHT22;24179;52.094;4.408;2022-12-18T03:26:22;-3.50;99.90
38398;DHT22;24179;52.094;4.408;2022-12-18T03:29:25;-3.50;99.90
38398;DHT22;24179;52.094;4.408;2022-12-18T03:32:30;-3.50;99.90
38398;DHT22;24179;52.094;4.408;2022-12-18T03:35:35;-3.50;99.90
38398;DHT22;24179;52.094;4.408;2022-12-18T03:38:36;-3.60;99.90
38398;DHT22;24179;52.094;4.408;2022-12-18T03:41:43;-3.70;99.90
38398;DHT22;24179;52.094;4.408;2022-12-18T03:48:08;-3.90;99.90
38398;DHT22;24179;52.094;4.408;2022-12-18T03:51:10;-3.90;99.90
38398;DHT22;24179;52.094;4.408;2022-12-18T03:54:15;-3.90;99.90
38398;DHT22;24179;52.094;4.408;2022-12-18T03:57:17;-4.00;99.90
38398;DHT22;24179;52.094;4.408;2022-12-18T04:00:18;-4.10;99.90
38398;DHT22;24179;52.094;4.408;2022-12-18T04:03:19;-4.10;99.90
38398;DHT22;24179;52.094;4.408;2022-12-18T04:06:20;-4.20;99.90
38398;DHT22;24179;52.094;4.408;2022-12-18T04:09:21;-4.30;99.90
38398;DHT22;24179;52.094;4.408;2022-12-18T04:12:25;-4.30;99.90
38398;DHT22;24179;52.094;4.408;2022-12-18T04:15:26;-4.30;99.90
38398;DHT22;24179;52.094;4.408;2022-12-18T04:18:26;-4.40;99.90
38398;DHT22;24179;52.094;4.408;2022-12-18T04:21:27;-4.50;99.90
38398;DHT22;24179;52.094;4.408;2022-12-18T04:24:27;-4.60;99.90
38398;DHT22;24179;52.094;4.408;2022-12-18T04:27:30;-4.60;99.90
38398;DHT22;24179;52.094;4.408;2022-12-18T04:30:31;-4.60;99.90
38398;DHT22;24179;52.094;4.408;2022-12-18T04:33:31;-4.60;99.90
38398;DHT22;24179;52.094;4.408;2022-12-18T04:36:32;-4.70;99.90
38398;DHT22;24179;52.094;4.408;2022-12-18T04:39:32;-4.70;99.90
38398;DHT22;24179;52.094;4.408;2022-12-18T04:42:36;-4.60;99.90
38398;DHT22;24179;52.094;4.408;2022-12-18T04:45:36;-4.60;99.90
38398;DHT22;24179;52.094;4.408;2022-12-18T04:48:37;-4.70;99.90
38398;DHT22;24179;52.094;4.408;2022-12-18T04:51:37;-4.80;99.90
38398;DHT22;24179;52.094;4.408;2022-12-18T04:54:38;-5.00;99.90
38398;DHT22;24179;52.094;4.408;2022-12-18T04:57:38;-5.00;99.90
38398;DHT22;24179;52.094;4.408;2022-12-18T05:00:39;-5.10;99.90
38398;DHT22;24179;52.094;4.408;2022-12-18T05:03:39;-5.10;99.90
38398;DHT22;24179;52.094;4.408;2022-12-18T05:06:40;-5.10;99.90
38398;DHT22;24179;52.094;4.408;2022-12-18T05:09:40;-5.20;99.90
38398;DHT22;24179;52.094;4.408;2022-12-18T05:12:41;-5.20;99.90
38398;DHT22;24179;52.094;4.408;2022-12-18T05:15:58;-5.30;99.90
38398;DHT22;24179;52.094;4.408;2022-12-18T05:18:58;-5.30;99.90
38398;DHT22;24179;52.094;4.408;2022-12-18T05:22:02;-5.40;99.90
38398;DHT22;24179;52.094;4.408;2022-12-18T05:25:02;-5.50;99.90
38398;DHT22;24179;52.094;4.408;2022-12-18T05:28:03;-5.50;99.90
38398;DHT22;24179;52.094;4.408;2022-12-18T05:31:04;-5.50;99.90
38398;DHT22;24179;52.094;4.408;2022-12-18T05:34:05;-5.50;99.90
38398;DHT22;24179;52.094;4.408;2022-12-18T05:37:05;-5.60;99.90
38398;DHT22;24179;52.094;4.408;2022-12-18T05:40:06;-5.60;99.90
38398;DHT22;24179;52.094;4.408;2022-12-18T05:43:06;-5.60;99.90
38398;DHT22;24179;52.094;4.408;2022-12-18T05:46:08;-5.60;99.90
38398;DHT22;24179;52.094;4.408;2022-12-18T05:49:08;-5.70;99.90
38398;DHT22;24179;52.094;4.408;2022-12-18T05:52:09;-5.70;99.90
38398;DHT22;24179;52.094;4.408;2022-12-18T05:55:09;-5.80;99.90
38398;DHT22;24179;52.094;4.408;2022-12-18T05:58:10;-5.80;99.90
38398;DHT22;24179;52.094;4.408;2022-12-18T06:01:12;-5.80;99.90
38398;DHT22;24179;52.094;4.408;2022-12-18T06:04:13;-5.80;99.90
38398;DHT22;24179;52.094;4.408;2022-12-18T06:07:16;-5.90;99.90
38398;DHT22;24179;52.094;4.408;2022-12-18T06:10:19;-5.90;99.90
38398;DHT22;24179;52.094;4.408;2022-12-18T06:13:20;-5.90;99.90
38398;DHT22;24179;52.094;4.408;2022-12-18T06:16:20;-5.90;99.90
38398;DHT22;24179;52.094;4.408;2022-12-18T06:19:21;-6.00;99.90
38398;DHT22;24179;52.094;4.408;2022-12-18T06:22:21;-6.00;99.90
38398;DHT22;24179;52.094;4.408;2022-12-18T06:25:22;-6.00;99.90
38398;DHT22;24179;52.094;4.408;2022-12-18T06:28:22;-6.10;99.90
38398;DHT22;24179;52.094;4.408;2022-12-18T06:31:23;-6.10;99.90
38398;DHT22;24179;52.094;4.408;2022-12-18T06:34:23;-6.20;99.90
38398;DHT22;24179;52.094;4.408;2022-12-18T06:37:24;-6.20;99.90
38398;DHT22;24179;52.094;4.408;2022-12-18T06:40:26;-6.10;99.90
38398;DHT22;24179;52.094;4.408;2022-12-18T06:43:26;-6.10;99.90
38398;DHT22;24179;52.094;4.408;2022-12-18T06:46:27;-6.10;99.90
38398;DHT22;24179;52.094;4.408;2022-12-18T06:49:27;-6.10;99.90
38398;DHT22;24179;52.094;4.408;2022-12-18T06:52:28;-6.10;99.90
38398;DHT22;24179;52.094;4.408;2022-12-18T06:55:33;-6.10;99.90
38398;DHT22;24179;52.094;4.408;2022-12-18T06:58:34;-6.10;99.90
38398;DHT22;24179;52.094;4.408;2022-12-18T07:01:34;-6.10;99.90
38398;DHT22;24179;52.094;4.408;2022-12-18T07:04:38;-6.10;99.90
38398;DHT22;24179;52.094;4.408;2022-12-18T07:07:38;-6.10;99.90
38398;DHT22;24179;52.094;4.408;2022-12-18T07:10:42;-6.20;99.90
38398;DHT22;24179;52.094;4.408;2022-12-18T07:13:43;-6.20;99.90
38398;DHT22;24179;52.094;4.408;2022-12-18T07:16:43;-6.20;99.90
38398;DHT22;24179;52.094;4.408;2022-12-18T07:19:44;-6.20;99.90
38398;DHT22;24179;52.094;4.408;2022-12-18T07:22:44;-6.20;99.90
38398;DHT22;24179;52.094;4.408;2022-12-18T07:25:45;-6.20;99.90
38398;DHT22;24179;52.094;4.408;2022-12-18T07:28:45;-6.10;99.90
38398;DHT22;24179;52.094;4.408;2022-12-18T07:31:46;-6.00;99.90
38398;DHT22;24179;52.094;4.408;2022-12-18T07:34:47;-6.00;99.90
38398;DHT22;24179;52.094;4.408;2022-12-18T07:37:47;-5.90;99.90
38398;DHT22;24179;52.094;4.408;2022-12-18T07:40:48;-5.80;99.90
38398;DHT22;24179;52.094;4.408;2022-12-18T07:43:48;-5.80;99.90
38398;DHT22;24179;52.094;4.408;2022-12-18T07:46:49;-5.70;99.90
38398;DHT22;24179;52.094;4.408;2022-12-18T07:49:49;-5.70;99.90
38398;DHT22;24179;52.094;4.408;2022-12-18T07:52:49;-5.70;99.90
38398;DHT22;24179;52.094;4.408;2022-12-18T07:55:54;-5.70;99.90
38398;DHT22;24179;52.094;4.408;2022-12-18T07:58:55;-5.70;99.90
38398;DHT22;24179;52.094;4.408;2022-12-18T08:01:55;-5.60;99.90
38398;DHT22;24179;52.094;4.408;2022-12-18T08:04:56;-5.60;99.90
38398;DHT22;24179;52.094;4.408;2022-12-18T08:07:57;-5.60;99.90
38398;DHT22;24179;52.094;4.408;2022-12-18T08:10:58;-5.60;99.90
38398;DHT22;24179;52.094;4.408;2022-12-18T08:13:58;-5.50;99.90
38398;DHT22;24179;52.094;4.408;2022-12-18T08:16:59;-5.50;99.90
38398;DHT22;24179;52.094;4.408;2022-12-18T08:19:59;-5.50;99.90
38398;DHT22;24179;52.094;4.408;2022-12-18T08:23:00;-5.40;99.90
38398;DHT22;24179;52.094;4.408;2022-12-18T08:26:00;-5.40;99.90
38398;DHT22;24179;52.094;4.408;2022-12-18T08:29:01;-5.30;99.90
38398;DHT22;24179;52.094;4.408;2022-12-18T08:32:01;-5.30;99.90
38398;DHT22;24179;52.094;4.408;2022-12-18T08:35:02;-5.20;99.90
38398;DHT22;24179;52.094;4.408;2022-12-18T08:38:02;-5.10;99.90
38398;DHT22;24179;52.094;4.408;2022-12-18T08:41:07;-5.00;99.90
38398;DHT22;24179;52.094;4.408;2022-12-18T08:44:11;-5.00;99.90
38398;DHT22;24179;52.094;4.408;2022-12-18T08:47:30;-4.90;99.90
38398;DHT22;24179;52.094;4.408;2022-12-18T08:50:30;-4.80;99.90
38398;DHT22;24179;52.094;4.408;2022-12-18T08:53:31;-4.80;99.90
38398;DHT22;24179;52.094;4.408;2022-12-18T08:56:31;-4.70;99.90
38398;DHT22;24179;52.094;4.408;2022-12-18T08:59:33;-4.50;99.90
38398;DHT22;24179;52.094;4.408;2022-12-18T09:02:33;-4.50;99.90
38398;DHT22;24179;52.094;4.408;2022-12-18T09:05:34;-4.40;99.90
38398;DHT22;24179;52.094;4.408;2022-12-18T09:08:34;-4.40;99.90
38398;DHT22;24179;52.094;4.408;2022-12-18T09:11:35;-4.30;99.90
38398;DHT22;24179;52.094;4.408;2022-12-18T09:14:35;-4.40;99.90
38398;DHT22;24179;52.094;4.408;2022-12-18T09:17:36;-4.40;99.90
38398;DHT22;24179;52.094;4.408;2022-12-18T09:20:36;-4.30;99.90
38398;DHT22;24179;52.094;4.408;2022-12-18T09:23:37;-4.30;99.90
38398;DHT22;24179;52.094;4.408;2022-12-18T09:26:38;-4.10;99.90
38398;DHT22;24179;52.094;4.408;2022-12-18T09:29:38;-4.10;99.90
38398;DHT22;24179;52.094;4.408;2022-12-18T09:32:38;-4.00;99.90
38398;DHT22;24179;52.094;4.408;2022-12-18T09:35:40;-4.00;99.90
38398;DHT22;24179;52.094;4.408;2022-12-18T09:38:40;-3.90;99.90
38398;DHT22;24179;52.094;4.408;2022-12-18T09:44:43;-3.80;99.90
38398;DHT22;24179;52.094;4.408;2022-12-18T09:47:46;-3.70;99.90
38398;DHT22;24179;52.094;4.408;2022-12-18T09:50:47;-3.70;99.90
38398;DHT22;24179;52.094;4.408;2022-12-18T09:53:53;-3.60;99.90
38398;DHT22;24179;52.094;4.408;2022-12-18T09:56:54;-3.50;99.90
38398;DHT22;24179;52.094;4.408;2022-12-18T09:59:56;-3.50;99.90
38398;DHT22;24179;52.094;4.408;2022-12-18T10:02:59;-3.50;99.90
38398;DHT22;24179;52.094;4.408;2022-12-18T10:09:03;-3.30;99.90
38398;DHT22;24179;52.094;4.408;2022-12-18T10:15:18;-3.20;99.90
38398;DHT22;24179;52.094;4.408;2022-12-18T10:21:28;-3.30;99.90
38398;DHT22;24179;52.094;4.408;2022-12-18T10:24:37;-3.20;99.90
38398;DHT22;24179;52.094;4.408;2022-12-18T10:27:40;-3.00;99.90
38398;DHT22;24179;52.094;4.408;2022-12-18T10:30:41;-2.90;99.90
38398;DHT22;24179;52.094;4.408;2022-12-18T10:33:42;-3.00;99.90
38398;DHT22;24179;52.094;4.408;2022-12-18T10:36:42;-2.90;99.90
38398;DHT22;24179;52.094;4.408;2022-12-18T10:39:43;-2.90;99.90
38398;DHT22;24179;52.094;4.408;2022-12-18T10:42:44;-2.80;99.90
38398;DHT22;24179;52.094;4.408;2022-12-18T10:45:49;-2.70;99.90
38398;DHT22;24179;52.094;4.408;2022-12-18T10:48:57;-2.60;99.90
38398;DHT22;24179;52.094;4.408;2022-12-18T10:55:34;-2.50;99.90
38398;DHT22;24179;52.094;4.408;2022-12-18T10:58:36;-2.60;99.90
38398;DHT22;24179;52.094;4.408;2022-12-18T11:01:48;-2.40;99.90
38398;DHT22;24179;52.094;4.408;2022-12-18T11:04:51;-2.40;99.90
38398;DHT22;24179;52.094;4.408;2022-12-18T11:07:52;-2.30;99.90
38398;DHT22;24179;52.094;4.408;2022-12-18T11:10:54;-2.20;99.90
38398;DHT22;24179;52.094;4.408;2022-12-18T11:14:02;-2.00;99.90
38398;DHT22;24179;52.094;4.408;2022-12-18T11:17:03;-2.00;99.90
38398;DHT22;24179;52.094;4.408;2022-12-18T11:20:07;-2.00;99.90
38398;DHT22;24179;52.094;4.408;2022-12-18T11:23:19;-1.90;99.90
38398;DHT22;24179;52.094;4.408;2022-12-18T11:26:20;-1.80;99.90
38398;DHT22;24179;52.094;4.408;2022-12-18T11:29:34;-1.80;99.90
38398;DHT22;24179;52.094;4.408;2022-12-18T11:32:42;-1.80;99.90
38398;DHT22;24179;52.094;4.408;2022-12-18T11:38:44;-1.80;99.90
38398;DHT22;24179;52.094;4.408;2022-12-18T11:41:54;-1.70;99.90
38398;DHT22;24179;52.094;4.408;2022-12-18T11:48:22;-1.80;99.90
38398;DHT22;24179;52.094;4.408;2022-12-18T11:51:38;-1.80;99.90
38398;DHT22;24179;52.094;4.408;2022-12-18T11:54:42;-1.80;99.90
38398;DHT22;24179;52.094;4.408;2022-12-18T12:13:45;-1.50;99.90
38398;DHT22;24179;52.094;4.408;2022-12-18T12:16:55;-1.50;99.90
38398;DHT22;24179;52.094;4.408;2022-12-18T12:23:01;-1.40;99.90
38398;DHT22;24179;52.094;4.408;2022-12-18T12:26:07;-1.40;99.90
38398;DHT22;24179;52.094;4.408;2022-12-18T12:38:29;-1.30;99.90
38398;DHT22;24179;52.094;4.408;2022-12-18T12:41:31;-1.40;99.90
38398;DHT22;24179;52.094;4.408;2022-12-18T12:44:53;-1.40;99.90
38398;DHT22;24179;52.094;4.408;2022-12-18T12:47:54;-1.20;99.90
38398;DHT22;24179;52.094;4.408;2022-12-18T12:50:56;-1.30;99.90
38398;DHT22;24179;52.094;4.408;2022-12-18T12:53:59;-1.30;99.90
38398;DHT22;24179;52.094;4.408;2022-12-18T13:00:02;-1.30;99.90
38398;DHT22;24179;52.094;4.408;2022-12-18T13:06:07;-1.40;99.90
38398;DHT22;24179;52.094;4.408;2022-12-18T13:09:09;-1.40;99.90
38398;DHT22;24179;52.094;4.408;2022-12-18T13:12:11;-1.40;99.90
38398;DHT22;24179;52.094;4.408;2022-12-18T13:18:34;-1.30;99.90
38398;DHT22;24179;52.094;4.408;2022-12-18T13:21:35;-1.30;99.90
38398;DHT22;24179;52.094;4.408;2022-12-18T13:24:35;-1.20;99.90
38398;DHT22;24179;52.094;4.408;2022-12-18T13:30:47;-1.30;99.90
38398;DHT22;24179;52.094;4.408;2022-12-18T13:33:48;-1.30;99.90
38398;DHT22;24179;52.094;4.408;2022-12-18T13:36:48;-1.30;99.90
38398;DHT22;24179;52.094;4.408;2022-12-18T13:39:49;-1.20;99.90
38398;DHT22;24179;52.094;4.408;2022-12-18T13:42:50;-1.20;99.90
38398;DHT22;24179;52.094;4.408;2022-12-18T13:49:41;-1.20;99.90
38398;DHT22;24179;52.094;4.408;2022-12-18T13:52:43;-1.20;99.90
38398;DHT22;24179;52.094;4.408;2022-12-18T13:55:46;-1.20;99.90
38398;DHT22;24179;52.094;4.408;2022-12-18T14:02:13;-1.10;99.90
38398;DHT22;24179;52.094;4.408;2022-12-18T14:05:31;-1.10;99.90
38398;DHT22;24179;52.094;4.408;2022-12-18T14:08:33;-1.10;99.90
38398;DHT22;24179;52.094;4.408;2022-12-18T14:11:34;-1.20;99.90
38398;DHT22;24179;52.094;4.408;2022-12-18T14:14:35;-1.10;99.90
38398;DHT22;24179;52.094;4.408;2022-12-18T14:17:36;-1.10;99.90
38398;DHT22;24179;52.094;4.408;2022-12-18T14:20:37;-1.10;99.90
38398;DHT22;24179;52.094;4.408;2022-12-18T14:23:41;-1.10;99.90
38398;DHT22;24179;52.094;4.408;2022-12-18T14:26:42;-1.10;99.90
38398;DHT22;24179;52.094;4.408;2022-12-18T14:29:42;-1.00;99.90
38398;DHT22;24179;52.094;4.408;2022-12-18T14:32:44;-1.00;99.90
38398;DHT22;24179;52.094;4.408;2022-12-18T14:36:00;-1.00;99.90
38398;DHT22;24179;52.094;4.408;2022-12-18T14:39:00;-1.00;99.90
38398;DHT22;24179;52.094;4.408;2022-12-18T14:42:01;-1.00;99.90
38398;DHT22;24179;52.094;4.408;2022-12-18T14:48:37;-1.10;99.90
38398;DHT22;24179;52.094;4.408;2022-12-18T14:51:38;-1.10;99.90
38398;DHT22;24179;52.094;4.408;2022-12-18T14:54:39;-1.00;99.90
38398;DHT22;24179;52.094;4.408;2022-12-18T14:57:39;-1.00;99.90
38398;DHT22;24179;52.094;4.408;2022-12-18T15:00:43;-1.00;99.90
38398;DHT22;24179;52.094;4.408;2022-12-18T15:03:44;-1.00;99.90
38398;DHT22;24179;52.094;4.408;2022-12-18T15:06:44;-1.00;99.90
38398;DHT22;24179;52.094;4.408;2022-12-18T15:16:05;-1.00;99.90
38398;DHT22;24179;52.094;4.408;2022-12-18T15:19:11;-1.10;99.90
38398;DHT22;24179;52.094;4.408;2022-12-18T15:22:22;-1.00;99.90
38398;DHT22;24179;52.094;4.408;2022-12-18T15:25:31;-1.10;99.90
38398;DHT22;24179;52.094;4.408;2022-12-18T15:28:35;-1.00;99.90
38398;DHT22;24179;52.094;4.408;2022-12-18T15:31:36;-1.10;99.90
38398;DHT22;24179;52.094;4.408;2022-12-18T15:34:37;-1.10;99.90
38398;DHT22;24179;52.094;4.408;2022-12-18T15:37:41;-1.10;99.90
38398;DHT22;24179;52.094;4.408;2022-12-18T15:40:41;-1.00;99.90
38398;DHT22;24179;52.094;4.408;2022-12-18T15:43:42;-1.00;99.90
38398;DHT22;24179;52.094;4.408;2022-12-18T15:46:42;-0.90;99.90
38398;DHT22;24179;52.094;4.408;2022-12-18T15:49:43;-0.90;99.90
38398;DHT22;24179;52.094;4.408;2022-12-18T15:52:48;-0.90;99.90
38398;DHT22;24179;52.094;4.408;2022-12-18T15:55:52;-0.90;99.90
38398;DHT22;24179;52.094;4.408;2022-12-18T15:59:15;-0.90;99.90
38398;DHT22;24179;52.094;4.408;2022-12-18T16:02:17;-0.80;99.90
38398;DHT22;24179;52.094;4.408;2022-12-18T16:05:19;-0.80;99.90
38398;DHT22;24179;52.094;4.408;2022-12-18T16:08:20;-0.80;99.90
38398;DHT22;24179;52.094;4.408;2022-12-18T16:11:21;-0.70;99.90
38398;DHT22;24179;52.094;4.408;2022-12-18T16:14:38;-0.70;99.90
38398;DHT22;24179;52.094;4.408;2022-12-18T16:17:38;-0.70;99.90
38398;DHT22;24179;52.094;4.408;2022-12-18T16:20:42;-0.70;99.90
38398;DHT22;24179;52.094;4.408;2022-12-18T16:23:42;-0.60;99.90
38398;DHT22;24179;52.094;4.408;2022-12-18T16:26:43;-0.60;99.90
38398;DHT22;24179;52.094;4.408;2022-12-18T16:29:43;-0.50;99.90
38398;DHT22;24179;52.094;4.408;2022-12-18T16:32:44;-0.40;99.90
38398;DHT22;24179;52.094;4.408;2022-12-18T16:35:50;-0.40;99.90
38398;DHT22;24179;52.094;4.408;2022-12-18T16:38:51;-0.40;99.90
38398;DHT22;24179;52.094;4.408;2022-12-18T16:41:51;-0.30;99.90
38398;DHT22;24179;52.094;4.408;2022-12-18T16:44:51;-0.30;99.90
38398;DHT22;24179;52.094;4.408;2022-12-18T16:47:55;-0.20;99.90
38398;DHT22;24179;52.094;4.408;2022-12-18T16:51:02;-0.20;99.90
38398;DHT22;24179;52.094;4.408;2022-12-18T16:54:03;-0.20;99.90
38398;DHT22;24179;52.094;4.408;2022-12-18T16:57:04;-0.20;99.90
38398;DHT22;24179;52.094;4.408;2022-12-18T17:00:04;-0.20;99.90
38398;DHT22;24179;52.094;4.408;2022-12-18T17:03:05;-0.20;99.90
38398;DHT22;24179;52.094;4.408;2022-12-18T17:06:06;-0.10;99.90
38398;DHT22;24179;52.094;4.408;2022-12-18T17:09:07;-0.10;99.90
38398;DHT22;24179;52.094;4.408;2022-12-18T17:12:08;-0.10;99.90
38398;DHT22;24179;52.094;4.408;2022-12-18T17:15:09;-0.10;99.90
38398;DHT22;24179;52.094;4.408;2022-12-18T17:18:09;0.00;99.90
38398;DHT22;24179;52.094;4.408;2022-12-18T17:21:10;-0.10;99.90
38398;DHT22;24179;52.094;4.408;2022-12-18T17:24:12;0.00;99.90
38398;DHT22;24179;52.094;4.408;2022-12-18T17:27:13;0.00;99.90
38398;DHT22;24179;52.094;4.408;2022-12-18T17:30:13;-0.10;99.90
38398;DHT22;24179;52.094;4.408;2022-12-18T17:33:14;-0.10;99.90
38398;DHT22;24179;52.094;4.408;2022-12-18T17:36:15;0.00;99.90
38398;DHT22;24179;52.094;4.408;2022-12-18T17:39:19;0.00;99.90
38398;DHT22;24179;52.094;4.408;2022-12-18T17:42:19;0.00;99.90
38398;DHT22;24179;52.094;4.408;2022-12-18T17:45:20;0.00;99.90
38398;DHT22;24179;52.094;4.408;2022-12-18T17:48:20;0.00;99.90
38398;DHT22;24179;52.094;4.408;2022-12-18T17:51:24;0.00;99.90
38398;DHT22;24179;52.094;4.408;2022-12-18T17:54:25;0.00;99.90
38398;DHT22;24179;52.094;4.408;2022-12-18T17:57:25;0.00;99.90
38398;DHT22;24179;52.094;4.408;2022-12-18T18:00:26;0.00;99.90
38398;DHT22;24179;52.094;4.408;2022-12-18T18:03:26;0.10;99.90
38398;DHT22;24179;52.094;4.408;2022-12-18T18:06:30;0.00;99.90
38398;DHT22;24179;52.094;4.408;2022-12-18T18:09:30;0.10;99.90
38398;DHT22;24179;52.094;4.408;2022-12-18T18:12:31;0.00;99.90
38398;DHT22;24179;52.094;4.408;2022-12-18T18:15:54;0.10;99.90
38398;DHT22;24179;52.094;4.408;2022-12-18T18:18:56;0.10;99.90
38398;DHT22;24179;52.094;4.408;2022-12-18T18:21:56;0.10;99.90
38398;DHT22;24179;52.094;4.408;2022-12-18T18:24:57;0.20;99.90
38398;DHT22;24179;52.094;4.408;2022-12-18T18:27:57;0.20;99.90
38398;DHT22;24179;52.094;4.408;2022-12-18T18:31:02;0.20;99.90
38398;DHT22;24179;52.094;4.408;2022-12-18T18:34:04;0.30;99.90
38398;DHT22;24179;52.094;4.408;2022-12-18T18:37:04;0.30;99.90
38398;DHT22;24179;52.094;4.408;2022-12-18T18:40:06;0.20;99.90
38398;DHT22;24179;52.094;4.408;2022-12-18T18:43:07;0.20;99.90
38398;DHT22;24179;52.094;4.408;2022-12-18T18:46:10;0.20;99.90
38398;DHT22;24179;52.094;4.408;2022-12-18T18:49:11;0.20;99.90
38398;DHT22;24179;52.094;4.408;2022-12-18T18:52:12;0.20;99.90
38398;DHT22;24179;52.094;4.408;2022-12-18T18:55:13;0.10;99.90
38398;DHT22;24179;52.094;4.408;2022-12-18T18:58:13;0.20;99.90
38398;DHT22;24179;52.094;4.408;2022-12-18T19:01:17;0.10;99.90
38398;DHT22;24179;52.094;4.408;2022-12-18T19:04:18;0.20;99.90
38398;DHT22;24179;52.094;4.408;2022-12-18T19:07:19;0.20;99.90
38398;DHT22;24179;52.094;4.408;2022-12-18T19:10:19;0.20;99.90
38398;DHT22;24179;52.094;4.408;2022-12-18T19:13:20;0.20;99.90
38398;DHT22;24179;52.094;4.408;2022-12-18T19:16:21;0.20;99.90
38398;DHT22;24179;52.094;4.408;2022-12-18T19:19:22;0.20;99.90
38398;DHT22;24179;52.094;4.408;2022-12-18T19:22:22;0.20;99.90
38398;DHT22;24179;52.094;4.408;2022-12-18T19:25:23;0.20;99.90
38398;DHT22;24179;52.094;4.408;2022-12-18T19:28:24;0.20;99.90
38398;DHT22;24179;52.094;4.408;2022-12-18T19:31:25;0.20;99.90
38398;DHT22;24179;52.094;4.408;2022-12-18T19:34:26;0.20;99.90
38398;DHT22;24179;52.094;4.408;2022-12-18T19:37:26;0.20;99.90
38398;DHT22;24179;52.094;4.408;2022-12-18T19:40:27;0.30;99.90
38398;DHT22;24179;52.094;4.408;2022-12-18T19:43:27;0.30;99.90
38398;DHT22;24179;52.094;4.408;2022-12-18T19:46:28;0.30;99.90
38398;DHT22;24179;52.094;4.408;2022-12-18T19:49:28;0.20;99.90
38398;DHT22;24179;52.094;4.408;2022-12-18T19:52:31;0.20;99.90
38398;DHT22;24179;52.094;4.408;2022-12-18T19:55:31;0.20;99.90
38398;DHT22;24179;52.094;4.408;2022-12-18T19:58:32;0.20;99.90
38398;DHT22;24179;52.094;4.408;2022-12-18T20:01:32;0.30;99.90
38398;DHT22;24179;52.094;4.408;2022-12-18T20:04:33;0.30;99.90
38398;DHT22;24179;52.094;4.408;2022-12-18T20:07:36;0.30;99.90
38398;DHT22;24179;52.094;4.408;2022-12-18T20:10:37;0.30;99.90
38398;DHT22;24179;52.094;4.408;2022-12-18T20:13:38;0.30;99.90
38398;DHT22;24179;52.094;4.408;2022-12-18T20:16:41;0.40;99.90
38398;DHT22;24179;52.094;4.408;2022-12-18T20:19:42;0.40;99.90
38398;DHT22;24179;52.094;4.408;2022-12-18T20:22:43;0.30;99.90
38398;DHT22;24179;52.094;4.408;2022-12-18T20:25:43;0.40;99.90
38398;DHT22;24179;52.094;4.408;2022-12-18T20:28:44;0.40;99.90
38398;DHT22;24179;52.094;4.408;2022-12-18T20:31:44;0.40;99.90
38398;DHT22;24179;52.094;4.408;2022-12-18T20:34:44;0.40;99.90
38398;DHT22;24179;52.094;4.408;2022-12-18T20:37:45;0.60;99.90
38398;DHT22;24179;52.094;4.408;2022-12-18T20:40:45;0.40;99.90
38398;DHT22;24179;52.094;4.408;2022-12-18T20:43:46;0.50;99.90
38398;DHT22;24179;52.094;4.408;2022-12-18T20:46:46;0.50;99.90
38398;DHT22;24179;52.094;4.408;2022-12-18T20:49:47;0.50;99.90
38398;DHT22;24179;52.094;4.408;2022-12-18T20:52:47;0.50;99.90
38398;DHT22;24179;52.094;4.408;2022-12-18T20:55:48;0.50;99.90
38398;DHT22;24179;52.094;4.408;2022-12-18T20:58:49;0.50;99.90
38398;DHT22;24179;52.094;4.408;2022-12-18T21:01:50;0.50;99.90
38398;DHT22;24179;52.094;4.408;2022-12-18T21:04:53;0.50;99.90
38398;DHT22;24179;52.094;4.408;2022-12-18T21:07:54;0.60;99.90